createdAt,value
2022-12-14T00:01:31.367Z,-1.10
2022-12-14T00:04:17.382Z,-0.20
2022-12-14T00:07:02.652Z,0.30
2022-12-14T00:09:48.019Z,-1.50
2022-12-14T00:12:33.508Z,-1.50
2022-12-14T00:15:19.272Z,-1.50
2022-12-14T00:18:04.917Z,-1.40
2022-12-14T00:20:50.035Z,-1.30
2022-12-14T00:23:39.070Z,-1.40
2022-12-14T00:26:32.447Z,-1.30
2022-12-14T00:29:18.039Z,-1.40
2022-12-14T00:32:03.458Z,-1.50
2022-12-14T00:34:49.000Z,-1.40
2022-12-14T00:37:34.633Z,-1.40
2022-12-14T00:40:20.000Z,-0.60
2022-12-14T00:43:05.724Z,-1.50
2022-12-14T00:45:51.341Z,0.90
2022-12-14T00:48:36.935Z,-1.20
2022-12-14T00:51:22.743Z,-1.40
2022-12-14T00:54:08.053Z,-1.50
2022-12-14T00:56:53.570Z,-1.60
2022-12-14T00:59:39.209Z,-1.90
2022-12-14T01:02:25.023Z,-1.70
2022-12-14T01:05:10.584Z,0.30
2022-12-14T01:07:56.377Z,-1.50
2022-12-14T01:10:41.701Z,-1.60
2022-12-14T01:13:27.643Z,-1.70
2022-12-14T01:16:14.723Z,-1.50
2022-12-14T01:19:01.204Z,-1.60
2022-12-14T01:21:46.365Z,-0.10
2022-12-14T01:24:32.151Z,-2.10
2022-12-14T01:27:17.461Z,-2.20
2022-12-14T01:30:04.054Z,-2.20
2022-12-14T01:32:49.328Z,-2.40
2022-12-14T01:35:34.817Z,-2.20
2022-12-14T01:38:20.323Z,-2.40
2022-12-14T01:41:06.733Z,-2.30
2022-12-14T01:43:53.586Z,-2.30
2022-12-14T01:46:51.231Z,-2.40
2022-12-14T01:49:42.686Z,-2.30
2022-12-14T01:52:47.502Z,-2.40
2022-12-14T01:55:41.718Z,-2.30
2022-12-14T01:58:30.723Z,-2.30
2022-12-14T02:01:16.804Z,-2.30
2022-12-14T02:04:02.849Z,-0.60
2022-12-14T02:06:54.170Z,-2.60
2022-12-14T02:09:44.747Z,-2.50
2022-12-14T02:12:35.297Z,-2.20
2022-12-14T02:15:20.818Z,-2.20
2022-12-14T02:18:09.959Z,-2.50
2022-12-14T02:21:25.268Z,-2.40
2022-12-14T02:24:33.044Z,-2.30
2022-12-14T02:27:21.416Z,-2.20
2022-12-14T02:30:23.133Z,-2.30
2022-12-14T02:33:30.823Z,-2.20
2022-12-14T02:36:28.761Z,-2.40
2022-12-14T02:39:30.644Z,-2.10
2022-12-14T02:42:26.284Z,-1.90
2022-12-14T02:45:26.758Z,-1.90
2022-12-14T02:48:45.388Z,-1.80
2022-12-14T02:51:49.073Z,-1.60
2022-12-14T02:54:56.198Z,-1.60
2022-12-14T02:57:52.706Z,-1.50
2022-12-14T03:00:38.937Z,0.40
2022-12-14T03:03:24.718Z,-1.40
2022-12-14T03:06:26.607Z,-1.40
2022-12-14T03:09:17.105Z,-1.50
2022-12-14T03:12:09.195Z,-1.40
2022-12-14T03:14:56.050Z,-1.50
2022-12-14T03:17:45.080Z,0.10
2022-12-14T03:20:37.312Z,-1.60
2022-12-14T03:23:27.102Z,-1.50
2022-12-14T03:26:22.592Z,-1.60
2022-12-14T03:29:17.870Z,-1.50
2022-12-14T03:32:09.268Z,-1.30
2022-12-14T03:35:11.073Z,-1.20
2022-12-14T03:38:13.412Z,-1.20
2022-12-14T03:41:18.551Z,-0.90
2022-12-14T03:44:16.290Z,-1.10
2022-12-14T03:47:24.878Z,-1.10
2022-12-14T03:50:16.489Z,-0.50
2022-12-14T03:53:14.116Z,-1.20
2022-12-14T03:56:04.830Z,-1.30
2022-12-14T03:59:24.401Z,0.20
2022-12-14T04:02:50.709Z,-2.00
2022-12-14T04:06:03.129Z,-2.20
2022-12-14T04:09:13.545Z,-2.00
2022-12-14T04:12:29.375Z,-1.90
2022-12-14T04:15:44.209Z,-1.90
2022-12-14T04:18:59.537Z,-1.90
2022-12-14T04:22:18.705Z,-1.90
2022-12-14T04:25:33.373Z,-1.80
2022-12-14T04:28:45.711Z,-1.80
2022-12-14T04:31:33.830Z,-1.80
2022-12-14T04:34:23.325Z,-1.80
2022-12-14T04:37:14.084Z,-1.80
2022-12-14T04:40:05.435Z,-1.70
2022-12-14T04:42:59.112Z,-1.50
2022-12-14T04:45:56.983Z,-1.50
2022-12-14T04:48:56.102Z,-1.50
2022-12-14T04:52:05.043Z,0.40
2022-12-14T04:54:57.938Z,-0.90
2022-12-14T04:57:52.114Z,-1.30
2022-12-14T05:00:47.765Z,-1.30
2022-12-14T05:03:37.879Z,-1.30
2022-12-14T05:06:37.206Z,0.40
2022-12-14T05:09:31.381Z,-1.50
2022-12-14T05:12:48.676Z,-1.60
2022-12-14T05:15:41.917Z,-1.50
2022-12-14T05:18:27.282Z,-1.70
2022-12-14T05:21:32.939Z,0.00
2022-12-14T05:24:18.263Z,-1.40
2022-12-14T05:27:03.548Z,-1.40
2022-12-14T05:29:49.153Z,0.40
2022-12-14T05:32:34.922Z,-1.60
2022-12-14T05:35:20.818Z,-1.60
2022-12-14T05:38:06.452Z,-1.30
2022-12-14T05:40:52.153Z,-1.10
2022-12-14T05:43:37.445Z,-1.00
2022-12-14T05:46:23.244Z,-0.90
2022-12-14T05:49:08.866Z,-0.90
2022-12-14T05:51:54.375Z,1.10
2022-12-14T05:54:39.957Z,-0.70
2022-12-14T05:57:25.298Z,-0.60
2022-12-14T06:00:11.476Z,0.00
2022-12-14T06:02:56.825Z,-0.60
2022-12-14T06:05:42.508Z,-0.70
2022-12-14T06:08:30.508Z,-0.80
2022-12-14T06:11:21.547Z,-0.10
2022-12-14T06:14:08.049Z,-0.70
2022-12-14T06:16:53.938Z,-0.80
2022-12-14T06:19:39.423Z,0.20
2022-12-14T06:22:25.350Z,-0.90
2022-12-14T06:25:10.878Z,-1.00
2022-12-14T06:27:56.494Z,-0.90
2022-12-14T06:30:42.070Z,-0.90
2022-12-14T06:33:28.379Z,-0.90
2022-12-14T06:36:18.295Z,-0.70
2022-12-14T06:39:07.151Z,-0.50
2022-12-14T06:41:52.574Z,-0.90
2022-12-14T06:44:38.058Z,-0.70
2022-12-14T06:47:23.621Z,-0.70
2022-12-14T06:50:10.146Z,-0.70
2022-12-14T06:52:58.240Z,-0.50
2022-12-14T06:55:43.566Z,-0.60
2022-12-14T06:58:35.519Z,-0.50
2022-12-14T07:01:23.235Z,1.40
2022-12-14T07:04:09.397Z,2.60
2022-12-14T07:06:54.598Z,1.30
2022-12-14T07:09:39.855Z,-0.30
2022-12-14T07:12:25.544Z,-0.30
2022-12-14T07:15:11.295Z,-0.60
2022-12-14T07:17:56.974Z,-0.60
2022-12-14T07:20:43.070Z,-0.60
2022-12-14T07:23:31.240Z,-0.70
2022-12-14T07:26:22.585Z,-0.80
2022-12-14T07:29:09.322Z,1.20
2022-12-14T07:31:54.964Z,-0.60
2022-12-14T07:34:40.603Z,-0.60
2022-12-14T07:37:25.901Z,-0.50
2022-12-14T07:40:11.772Z,-0.30
2022-12-14T07:42:57.174Z,-0.30
2022-12-14T07:45:43.037Z,-1.70
2022-12-14T07:48:29.343Z,-0.10
2022-12-14T07:51:16.712Z,-0.10
2022-12-14T07:54:04.471Z,0.00
2022-12-14T07:56:50.964Z,0.20
2022-12-14T07:59:36.504Z,2.00
2022-12-14T08:02:22.308Z,0.20
2022-12-14T08:05:12.419Z,0.10
2022-12-14T08:07:58.394Z,0.20
2022-12-14T08:10:48.137Z,1.70
2022-12-14T08:13:34.681Z,0.10
2022-12-14T08:16:20.268Z,0.00
2022-12-14T08:19:05.809Z,0.00
2022-12-14T08:21:51.405Z,0.00
2022-12-14T08:24:37.022Z,2.00
2022-12-14T08:27:22.521Z,0.30
2022-12-14T08:30:08.407Z,0.70
2022-12-14T08:32:55.364Z,0.50
2022-12-14T08:35:40.782Z,0.70
2022-12-14T08:38:26.366Z,0.80
2022-12-14T08:41:14.336Z,0.90
2022-12-14T08:44:01.368Z,0.80
2022-12-14T08:46:46.925Z,1.40
2022-12-14T08:49:33.058Z,1.60
2022-12-14T08:52:21.450Z,0.20
2022-12-14T08:55:07.805Z,2.90
2022-12-14T08:57:54.832Z,0.20
2022-12-14T09:00:40.413Z,1.60
2022-12-14T09:03:25.713Z,0.00
2022-12-14T09:06:15.613Z,0.60
2022-12-14T09:09:01.720Z,1.10
2022-12-14T09:11:46.973Z,1.20
2022-12-14T09:14:36.236Z,1.20
2022-12-14T09:17:21.598Z,1.20
2022-12-14T09:20:07.593Z,3.00
2022-12-14T09:22:52.939Z,1.60
2022-12-14T09:25:38.457Z,1.40
2022-12-14T09:28:24.162Z,3.00
2022-12-14T09:31:16.125Z,1.60
2022-12-14T09:34:01.498Z,1.90
2022-12-14T09:36:47.435Z,1.60
2022-12-14T09:39:32.946Z,1.80
2022-12-14T09:42:55.265Z,2.30
2022-12-14T09:45:50.593Z,2.80
2022-12-14T09:48:36.959Z,3.10
2022-12-14T09:51:25.750Z,3.00
2022-12-14T09:54:15.688Z,3.50
2022-12-14T09:57:22.741Z,4.70
2022-12-14T10:00:18.982Z,3.70
2022-12-14T10:03:46.750Z,4.10
2022-12-14T10:06:53.080Z,4.70
2022-12-14T10:10:21.962Z,5.20
2022-12-14T10:13:17.606Z,5.00
2022-12-14T10:16:28.079Z,7.00
2022-12-14T10:19:22.652Z,4.90
2022-12-14T10:22:12.280Z,4.40
2022-12-14T10:25:22.786Z,3.70
2022-12-14T10:28:17.348Z,3.10
2022-12-14T10:31:06.234Z,3.20
2022-12-14T10:33:52.795Z,3.30
2022-12-14T10:37:07.977Z,3.80
2022-12-14T10:39:58.136Z,4.70
2022-12-14T10:43:02.565Z,5.40
2022-12-14T10:46:05.203Z,3.60
2022-12-14T10:49:08.914Z,3.70
2022-12-14T10:52:01.215Z,4.10
2022-12-14T10:54:52.495Z,5.50
2022-12-14T10:57:38.170Z,4.20
2022-12-14T11:00:24.023Z,3.90
2022-12-14T11:03:16.018Z,4.00
2022-12-14T11:06:28.232Z,4.10
2022-12-14T11:09:24.495Z,4.30
2022-12-14T11:12:13.311Z,5.00
2022-12-14T11:15:04.486Z,4.70
2022-12-14T11:18:12.216Z,5.00
2022-12-14T11:21:04.702Z,4.70
2022-12-14T11:23:54.780Z,6.30
2022-12-14T11:26:42.872Z,5.90
2022-12-14T11:29:35.045Z,4.90
2022-12-14T11:32:25.397Z,6.40
2022-12-14T11:35:17.482Z,5.70
2022-12-14T11:38:03.404Z,4.60
2022-12-14T11:40:48.928Z,7.00
2022-12-14T11:43:35.117Z,5.80
2022-12-14T11:46:20.868Z,5.70
2022-12-14T11:49:21.055Z,5.40
2022-12-14T11:52:06.276Z,6.00
2022-12-14T11:54:54.955Z,5.00
2022-12-14T11:57:53.885Z,4.60
2022-12-14T12:00:47.402Z,4.50
2022-12-14T12:03:36.137Z,4.50
2022-12-14T12:06:29.878Z,6.10
2022-12-14T12:09:34.303Z,6.50
2022-12-14T12:12:22.490Z,6.60
2022-12-14T12:15:25.168Z,7.70
2022-12-14T12:18:28.973Z,6.20
2022-12-14T12:21:26.403Z,6.20
2022-12-14T12:25:08.354Z,6.20
2022-12-14T12:27:52.045Z,6.30
2022-12-14T12:30:42.869Z,7.40
2022-12-14T12:33:49.567Z,6.40
2022-12-14T12:36:34.906Z,6.20
2022-12-14T12:39:25.069Z,7.30
2022-12-14T12:42:31.879Z,5.50
2022-12-14T12:45:21.093Z,4.40
2022-12-14T12:48:36.355Z,4.30
2022-12-14T12:51:28.101Z,4.50
2022-12-14T12:54:27.388Z,4.70
2022-12-14T12:57:14.261Z,5.50
2022-12-14T13:00:01.242Z,5.00
2022-12-14T13:02:56.336Z,6.40
2022-12-14T13:05:47.570Z,5.30
2022-12-14T13:08:39.346Z,7.10
2022-12-14T13:11:37.495Z,5.10
2022-12-14T13:14:35.262Z,5.30
2022-12-14T13:17:29.256Z,5.40
2022-12-14T13:20:30.104Z,5.40
2022-12-14T13:23:43.700Z,5.10
2022-12-14T13:27:04.632Z,5.90
2022-12-14T13:30:08.223Z,5.00
2022-12-14T13:33:06.659Z,4.80
2022-12-14T13:36:24.797Z,5.00
2022-12-14T13:39:37.793Z,4.90
2022-12-14T13:42:41.539Z,5.20
2022-12-14T13:45:46.128Z,5.30
2022-12-14T13:48:39.909Z,5.00
2022-12-14T13:51:32.729Z,4.90
2022-12-14T13:54:29.351Z,4.80
2022-12-14T13:57:23.416Z,4.60
2022-12-14T14:00:47.529Z,4.50
2022-12-14T14:03:36.279Z,4.20
2022-12-14T14:06:36.018Z,4.30
2022-12-14T14:09:30.215Z,4.20
2022-12-14T14:12:43.872Z,4.20
2022-12-14T14:15:38.165Z,5.70
2022-12-14T14:18:28.400Z,5.10
2022-12-14T14:21:20.049Z,4.90
2022-12-14T14:24:17.202Z,3.90
2022-12-14T14:27:21.821Z,3.60
2022-12-14T14:30:30.927Z,3.70
2022-12-14T14:33:51.351Z,3.80
2022-12-14T14:36:37.292Z,3.80
2022-12-14T14:39:56.606Z,3.90
2022-12-14T14:42:47.206Z,3.80
2022-12-14T14:45:43.187Z,3.90
2022-12-14T14:48:35.082Z,4.20
2022-12-14T14:51:25.564Z,5.70
2022-12-14T14:54:56.137Z,4.20
2022-12-14T14:58:01.382Z,5.70
2022-12-14T15:00:52.132Z,3.90
2022-12-14T15:03:49.275Z,4.00
2022-12-14T15:06:43.961Z,5.30
2022-12-14T15:09:33.799Z,4.00
2022-12-14T15:12:23.854Z,3.80
2022-12-14T15:15:34.078Z,3.90
2022-12-14T15:18:30.446Z,3.80
2022-12-14T15:21:18.295Z,4.80
2022-12-14T15:24:04.318Z,3.60
2022-12-14T15:26:50.260Z,3.50
2022-12-14T15:29:35.456Z,3.60
2022-12-14T15:32:23.664Z,3.90
2022-12-14T15:35:17.085Z,5.20
2022-12-14T15:38:27.773Z,3.30
2022-12-14T15:41:16.540Z,4.60
2022-12-14T15:44:01.862Z,3.30
2022-12-14T15:46:55.196Z,3.30
2022-12-14T15:49:40.683Z,3.20
2022-12-14T15:52:30.908Z,3.20
2022-12-14T15:55:32.169Z,3.10
2022-12-14T15:58:24.817Z,3.10
2022-12-14T16:01:16.526Z,4.90
2022-12-14T16:04:10.069Z,2.70
2022-12-14T16:07:08.200Z,2.80
2022-12-14T16:09:58.592Z,4.10
2022-12-14T16:12:47.901Z,3.00
2022-12-14T16:15:33.686Z,4.60
2022-12-14T16:18:20.604Z,6.20
2022-12-14T16:21:06.308Z,4.40
2022-12-14T16:23:52.021Z,3.20
2022-12-14T16:26:41.046Z,3.20
2022-12-14T16:29:29.714Z,3.50
2022-12-14T16:32:16.571Z,3.20
2022-12-14T16:35:02.723Z,4.00
2022-12-14T16:37:55.900Z,3.30
2022-12-14T16:40:54.521Z,3.30
2022-12-14T16:43:41.808Z,3.10
2022-12-14T16:46:27.401Z,3.10
2022-12-14T16:49:33.034Z,3.10
2022-12-14T16:52:32.989Z,3.20
2022-12-14T16:55:20.325Z,3.20
2022-12-14T16:58:06.298Z,3.10
2022-12-14T17:01:00.969Z,3.20
2022-12-14T17:04:02.085Z,3.20
2022-12-14T17:06:53.340Z,5.80
2022-12-14T17:09:40.074Z,3.30
2022-12-14T17:12:26.767Z,3.20
2022-12-14T17:15:17.518Z,4.30
2022-12-14T17:18:05.231Z,3.30
2022-12-14T17:20:51.869Z,3.70
2022-12-14T17:23:39.416Z,3.50
2022-12-14T17:26:28.205Z,3.60
2022-12-14T17:29:29.748Z,3.50
2022-12-14T17:32:16.765Z,3.60
2022-12-14T17:35:03.692Z,3.40
2022-12-14T17:37:49.281Z,3.50
2022-12-14T17:40:35.185Z,5.10
2022-12-14T17:43:25.122Z,3.30
2022-12-14T17:46:10.650Z,3.30
2022-12-14T17:48:55.985Z,4.10
2022-12-14T17:51:45.248Z,3.20
2022-12-14T17:54:31.467Z,3.10
2022-12-14T17:57:18.735Z,3.00
2022-12-14T18:00:23.158Z,3.70
2022-12-14T18:03:10.651Z,3.20
2022-12-14T18:05:56.173Z,3.20
2022-12-14T18:08:42.079Z,3.80
2022-12-14T18:11:27.800Z,3.70
2022-12-14T18:14:14.030Z,3.40
2022-12-14T18:17:00.999Z,3.50
2022-12-14T18:19:49.872Z,4.30
2022-12-14T18:22:35.450Z,5.10
2022-12-14T18:25:26.826Z,3.90
2022-12-14T18:28:12.107Z,3.60
2022-12-14T18:31:02.164Z,3.40
2022-12-14T18:33:48.225Z,3.50
2022-12-14T18:36:33.613Z,3.70
2022-12-14T18:39:19.895Z,3.20
2022-12-14T18:42:05.273Z,4.40
2022-12-14T18:44:50.626Z,4.00
2022-12-14T18:47:43.496Z,3.50
2022-12-14T18:50:29.716Z,3.60
2022-12-14T18:53:16.955Z,3.70
2022-12-14T18:56:07.520Z,3.60
2022-12-14T18:58:52.910Z,3.40
2022-12-14T19:01:39.642Z,3.40
2022-12-14T19:04:25.110Z,3.10
2022-12-14T19:07:10.906Z,3.00
2022-12-14T19:09:56.057Z,3.10
2022-12-14T19:12:42.582Z,5.00
2022-12-14T19:15:31.298Z,2.80
2022-12-14T19:18:17.495Z,2.60
2022-12-14T19:21:03.397Z,2.60
2022-12-14T19:23:48.792Z,2.50
2022-12-14T19:26:34.233Z,2.80
2022-12-14T19:29:19.568Z,2.80
2022-12-14T19:32:05.973Z,3.10
2022-12-14T19:34:51.916Z,3.00
2022-12-14T19:37:37.714Z,3.20
2022-12-14T19:40:23.275Z,3.70
2022-12-14T19:43:08.857Z,5.10
2022-12-14T19:45:54.276Z,3.50
2022-12-14T19:48:40.453Z,3.30
2022-12-14T19:51:25.937Z,3.20
2022-12-14T19:54:12.055Z,3.10
2022-12-14T19:56:58.044Z,3.10
2022-12-14T19:59:43.572Z,3.20
2022-12-14T20:02:29.569Z,4.90
2022-12-14T20:05:15.483Z,3.40
2022-12-14T20:08:00.647Z,3.40
2022-12-14T20:10:46.399Z,3.40
2022-12-14T20:13:32.342Z,4.90
2022-12-14T20:16:19.038Z,6.00
2022-12-14T20:19:05.580Z,3.30
2022-12-14T20:21:50.929Z,3.40
2022-12-14T20:24:37.101Z,3.40
2022-12-14T20:27:22.794Z,3.80
2022-12-14T20:30:09.257Z,2.90
2022-12-14T20:32:54.944Z,2.90
2022-12-14T20:35:40.603Z,2.80
2022-12-14T20:38:25.952Z,4.50
2022-12-14T20:41:14.543Z,3.00
2022-12-14T20:44:02.226Z,3.50
2022-12-14T20:46:50.976Z,3.00
2022-12-14T20:49:38.838Z,3.00
2022-12-14T20:52:24.364Z,3.00
2022-12-14T20:55:09.932Z,4.60
2022-12-14T20:57:55.708Z,3.00
2022-12-14T21:00:41.062Z,3.00
2022-12-14T21:03:27.974Z,4.80
2022-12-14T21:06:19.430Z,3.20
2022-12-14T21:09:05.680Z,3.20
2022-12-14T21:12:09.775Z,4.80
2022-12-14T21:14:56.344Z,4.70
2022-12-14T21:17:41.816Z,2.90
2022-12-14T21:20:27.587Z,4.90
2022-12-14T21:23:13.065Z,3.00
2022-12-14T21:26:05.227Z,3.00
2022-12-14T21:28:50.768Z,2.90
2022-12-14T21:31:41.606Z,2.90
2022-12-14T21:34:28.052Z,4.30
2022-12-14T21:37:13.952Z,4.10
2022-12-14T21:40:00.233Z,3.50
2022-12-14T21:42:48.987Z,3.10
2022-12-14T21:45:34.704Z,3.10
2022-12-14T21:48:20.379Z,3.20
2022-12-14T21:51:07.536Z,3.10
2022-12-14T21:54:00.812Z,3.30
2022-12-14T21:57:04.595Z,3.70
2022-12-14T21:59:50.006Z,3.20
2022-12-14T22:02:35.456Z,3.20
2022-12-14T22:05:21.155Z,4.80
2022-12-14T22:08:06.873Z,3.20
2022-12-14T22:10:52.900Z,3.20
2022-12-14T22:13:38.538Z,4.20
2022-12-14T22:16:23.962Z,3.40
2022-12-14T22:19:21.582Z,4.70
2022-12-14T22:22:07.186Z,3.30
2022-12-14T22:24:52.513Z,4.80
2022-12-14T22:27:38.435Z,3.50
2022-12-14T22:30:27.188Z,3.40
2022-12-14T22:33:17.283Z,3.40
2022-12-14T22:36:03.049Z,3.40
2022-12-14T22:38:48.631Z,3.50
2022-12-14T22:41:34.274Z,3.20
2022-12-14T22:44:19.677Z,3.40
2022-12-14T22:47:05.306Z,4.50
2022-12-14T22:49:50.715Z,3.50
2022-12-14T22:52:36.184Z,5.30
2022-12-14T22:55:21.991Z,3.20
2022-12-14T22:58:11.282Z,2.90
2022-12-14T23:00:56.805Z,4.90
2022-12-14T23:03:43.149Z,3.50
2022-12-14T23:06:29.210Z,2.80
2022-12-14T23:09:33.095Z,3.80
2022-12-14T23:12:37.128Z,2.80
2022-12-14T23:15:41.157Z,2.80
2022-12-14T23:18:45.290Z,2.80
2022-12-14T23:21:49.158Z,2.60
2022-12-14T23:24:53.078Z,5.10
2022-12-14T23:27:57.043Z,2.70
2022-12-14T23:31:00.762Z,2.90
2022-12-14T23:34:04.603Z,2.90
2022-12-14T23:37:08.536Z,3.20
2022-12-14T23:40:12.442Z,3.10
2022-12-14T23:43:16.316Z,3.20
2022-12-14T23:46:21.712Z,4.10
2022-12-14T23:49:25.677Z,3.10
2022-12-14T23:52:29.398Z,3.00
2022-12-14T23:55:33.360Z,3.10
2022-12-14T23:58:37.232Z,3.10
